Terminal Aerodrome Forecast
Issued by NWS Wilmington, OH

Current Version | Previous Version | Text Only | Print | Product List | Glossary Off
Versions: 1 2 3 4 5 6 7 8 9 10 11 12 13

000
FTUS41 KILN 302300
TAFDAY
TAF
KDAY 302327Z 0100/0124 35010KT P6SM SCT050 BKN100
      TEMPO 0100/0102 02014G20KT BKN050
     FM010700 34009KT P6SM FEW060
     FM011600 36012KT P6SM BKN050
     FM012300 36006KT P6SM SCT050=

USA.gov is the U.S. government's official web portal to all federal, state and local government web resources and services.